sensor_id;sensor_type;location;lat;lon;timestamp;pressure;altitude;pressure_sealevel;temperature;humidity
28927;BME280;16038;47.692;9.400;2023-06-19T00:01:51;96301.31;;;20.50;86.11
28927;BME280;16038;47.692;9.400;2023-06-19T00:04:17;96304.53;;;20.36;87.18
28927;BME280;16038;47.692;9.400;2023-06-19T00:06:42;96312.44;;;20.37;87.20
28927;BME280;16038;47.692;9.400;2023-06-19T00:09:07;96311.97;;;20.26;88.80
28927;BME280;16038;47.692;9.400;2023-06-19T00:11:33;96313.50;;;20.27;88.81
28927;BME280;16038;47.692;9.400;2023-06-19T00:13:58;96306.97;;;20.34;88.51
28927;BME280;16038;47.692;9.400;2023-06-19T00:16:23;96308.56;;;20.48;87.11
28927;BME280;16038;47.692;9.400;2023-06-19T00:18:50;96312.25;;;20.57;86.05
28927;BME280;16038;47.692;9.400;2023-06-19T00:21:17;96311.84;;;20.72;85.22
28927;BME280;16038;47.692;9.400;2023-06-19T00:23:42;96316.88;;;20.77;84.99
28927;BME280;16038;47.692;9.400;2023-06-19T00:26:07;96315.56;;;20.81;84.93
28927;BME280;16038;47.692;9.400;2023-06-19T00:28:33;96326.22;;;20.83;84.50
28927;BME280;16038;47.692;9.400;2023-06-19T00:30:58;96319.00;;;20.86;83.78
28927;BME280;16038;47.692;9.400;2023-06-19T00:33:24;96330.56;;;20.84;83.23
28927;BME280;16038;47.692;9.400;2023-06-19T00:35:52;96325.56;;;20.79;82.98
28927;BME280;16038;47.692;9.400;2023-06-19T00:38:17;96322.97;;;20.72;83.16
28927;BME280;16038;47.692;9.400;2023-06-19T00:40:43;96321.03;;;20.56;83.55
28927;BME280;16038;47.692;9.400;2023-06-19T00:43:08;96320.00;;;20.08;88.00
28927;BME280;16038;47.692;9.400;2023-06-19T00:45:34;96332.50;;;19.70;91.42
28927;BME280;16038;47.692;9.400;2023-06-19T00:48:00;96328.69;;;19.31;95.25
28927;BME280;16038;47.692;9.400;2023-06-19T00:50:28;96331.09;;;19.29;95.45
28927;BME280;16038;47.692;9.400;2023-06-19T00:52:54;96331.09;;;19.13;97.76
28927;BME280;16038;47.692;9.400;2023-06-19T00:55:19;96331.88;;;19.29;97.96
28927;BME280;16038;47.692;9.400;2023-06-19T00:57:46;96325.13;;;19.47;96.84
28927;BME280;16038;47.692;9.400;2023-06-19T01:00:11;96333.72;;;19.53;94.57
28927;BME280;16038;47.692;9.400;2023-06-19T01:02:38;96340.38;;;19.55;94.60
28927;BME280;16038;47.692;9.400;2023-06-19T01:05:04;96340.03;;;19.53;94.04
28927;BME280;16038;47.692;9.400;2023-06-19T01:07:47;96338.84;;;19.54;94.50
28927;BME280;16038;47.692;9.400;2023-06-19T01:10:21;96344.81;;;19.69;93.66
28927;BME280;16038;47.692;9.400;2023-06-19T01:12:55;96350.63;;;19.75;92.98
28927;BME280;16038;47.692;9.400;2023-06-19T01:15:22;96351.22;;;19.66;92.87
28927;BME280;16038;47.692;9.400;2023-06-19T01:17:48;96354.53;;;19.61;92.97
28927;BME280;16038;47.692;9.400;2023-06-19T01:20:14;96352.97;;;19.60;93.22
28927;BME280;16038;47.692;9.400;2023-06-19T01:22:40;96359.72;;;19.59;93.40
28927;BME280;16038;47.692;9.400;2023-06-19T01:25:10;96363.31;;;19.59;94.13
28927;BME280;16038;47.692;9.400;2023-06-19T01:27:39;96362.88;;;19.61;93.69
28927;BME280;16038;47.692;9.400;2023-06-19T01:30:05;96363.00;;;19.74;92.43
28927;BME280;16038;47.692;9.400;2023-06-19T01:34:59;96370.16;;;19.71;92.30
28927;BME280;16038;47.692;9.400;2023-06-19T01:37:28;96368.09;;;19.75;92.63
28927;BME280;16038;47.692;9.400;2023-06-19T01:39:57;96365.59;;;19.81;92.88
28927;BME280;16038;47.692;9.400;2023-06-19T01:42:24;96375.56;;;19.78;93.42
28927;BME280;16038;47.692;9.400;2023-06-19T01:44:50;96376.41;;;19.75;93.41
28927;BME280;16038;47.692;9.400;2023-06-19T01:47:16;96381.44;;;19.64;93.16
28927;BME280;16038;47.692;9.400;2023-06-19T01:49:46;96379.72;;;19.54;93.14
28927;BME280;16038;47.692;9.400;2023-06-19T01:52:12;96387.59;;;19.39;94.15
28927;BME280;16038;47.692;9.400;2023-06-19T01:54:37;96390.09;;;19.33;94.58
28927;BME280;16038;47.692;9.400;2023-06-19T01:57:03;96389.69;;;19.35;94.52
28927;BME280;16038;47.692;9.400;2023-06-19T01:59:28;96398.34;;;19.37;94.60
28927;BME280;16038;47.692;9.400;2023-06-19T02:01:54;96398.97;;;19.44;94.05
28927;BME280;16038;47.692;9.400;2023-06-19T02:04:19;96409.81;;;19.39;93.87
28927;BME280;16038;47.692;9.400;2023-06-19T02:06:45;96396.56;;;19.46;94.14
28927;BME280;16038;47.692;9.400;2023-06-19T02:09:10;96393.31;;;19.32;94.31
28927;BME280;16038;47.692;9.400;2023-06-19T02:11:36;96409.53;;;19.17;95.13
28927;BME280;16038;47.692;9.400;2023-06-19T02:14:01;96411.88;;;19.18;95.62
28927;BME280;16038;47.692;9.400;2023-06-19T02:16:27;96412.06;;;19.27;95.17
28927;BME280;16038;47.692;9.400;2023-06-19T02:18:52;96408.50;;;19.27;94.79
28927;BME280;16038;47.692;9.400;2023-06-19T02:21:17;96424.47;;;19.03;95.37
28927;BME280;16038;47.692;9.400;2023-06-19T02:23:43;96421.84;;;18.76;97.36
28927;BME280;16038;47.692;9.400;2023-06-19T02:26:08;96434.44;;;18.80;98.09
28927;BME280;16038;47.692;9.400;2023-06-19T02:28:33;96436.84;;;18.82;97.45
28927;BME280;16038;47.692;9.400;2023-06-19T02:30:59;96439.19;;;18.80;97.36
28927;BME280;16038;47.692;9.400;2023-06-19T02:33:24;96437.59;;;18.82;97.99
28927;BME280;16038;47.692;9.400;2023-06-19T02:35:49;96435.81;;;18.92;97.67
28927;BME280;16038;47.692;9.400;2023-06-19T02:38:15;96444.41;;;18.98;97.30
28927;BME280;16038;47.692;9.400;2023-06-19T02:40:40;96450.56;;;18.89;97.07
28927;BME280;16038;47.692;9.400;2023-06-19T02:43:06;96452.94;;;18.87;97.75
28927;BME280;16038;47.692;9.400;2023-06-19T02:45:31;96459.22;;;18.91;97.53
28927;BME280;16038;47.692;9.400;2023-06-19T02:47:56;96472.69;;;18.93;97.61
28927;BME280;16038;47.692;9.400;2023-06-19T02:50:22;96472.38;;;18.87;97.07
28927;BME280;16038;47.692;9.400;2023-06-19T02:52:47;96479.53;;;18.64;97.95
28927;BME280;16038;47.692;9.400;2023-06-19T02:55:13;96471.38;;;18.77;96.64
28927;BME280;16038;47.692;9.400;2023-06-19T02:57:38;96481.63;;;18.80;95.39
28927;BME280;16038;47.692;9.400;2023-06-19T03:00:04;96486.03;;;18.98;94.28
28927;BME280;16038;47.692;9.400;2023-06-19T03:02:34;96490.38;;;19.19;93.02
28927;BME280;16038;47.692;9.400;2023-06-19T03:04:59;96484.41;;;19.20;93.17
28927;BME280;16038;47.692;9.400;2023-06-19T03:07:25;96493.16;;;19.19;93.35
28927;BME280;16038;47.692;9.400;2023-06-19T03:09:54;96493.72;;;19.10;93.37
28927;BME280;16038;47.692;9.400;2023-06-19T03:12:19;96503.47;;;19.18;92.93
28927;BME280;16038;47.692;9.400;2023-06-19T03:14:44;96510.31;;;19.14;93.10
28927;BME280;16038;47.692;9.400;2023-06-19T03:17:10;96506.38;;;18.71;95.79
28927;BME280;16038;47.692;9.400;2023-06-19T03:19:35;96504.31;;;18.75;96.90
28927;BME280;16038;47.692;9.400;2023-06-19T03:22:00;96500.31;;;18.76;96.74
28927;BME280;16038;47.692;9.400;2023-06-19T03:24:26;96495.97;;;18.75;96.91
28927;BME280;16038;47.692;9.400;2023-06-19T03:26:51;96505.81;;;18.12;100.00
28927;BME280;16038;47.692;9.400;2023-06-19T03:29:16;96502.97;;;17.92;100.00
28927;BME280;16038;47.692;9.400;2023-06-19T03:31:42;96507.09;;;17.77;100.00
28927;BME280;16038;47.692;9.400;2023-06-19T03:34:07;96499.66;;;17.74;100.00
28927;BME280;16038;47.692;9.400;2023-06-19T03:36:33;96509.38;;;17.86;100.00
28927;BME280;16038;47.692;9.400;2023-06-19T03:38:58;96510.03;;;17.97;100.00
28927;BME280;16038;47.692;9.400;2023-06-19T03:41:24;96514.66;;;18.04;100.00
28927;BME280;16038;47.692;9.400;2023-06-19T03:43:49;96509.69;;;17.91;100.00
28927;BME280;16038;47.692;9.400;2023-06-19T03:46:14;96522.38;;;17.34;100.00
28927;BME280;16038;47.692;9.400;2023-06-19T03:48:40;96520.03;;;16.98;100.00
28927;BME280;16038;47.692;9.400;2023-06-19T03:51:05;96511.81;;;16.91;100.00
28927;BME280;16038;47.692;9.400;2023-06-19T03:53:31;96527.56;;;16.98;100.00
28927;BME280;16038;47.692;9.400;2023-06-19T03:55:56;96540.78;;;17.14;100.00
28927;BME280;16038;47.692;9.400;2023-06-19T03:58:21;96538.66;;;17.29;100.00
28927;BME280;16038;47.692;9.400;2023-06-19T04:00:47;96549.81;;;17.52;100.00
28927;BME280;16038;47.692;9.400;2023-06-19T04:03:12;96553.97;;;17.64;100.00
28927;BME280;16038;47.692;9.400;2023-06-19T04:05:37;96554.78;;;17.65;100.00
28927;BME280;16038;47.692;9.400;2023-06-19T04:08:04;96545.25;;;17.66;100.00
28927;BME280;16038;47.692;9.400;2023-06-19T04:10:29;96554.34;;;17.66;100.00
28927;BME280;16038;47.692;9.400;2023-06-19T04:12:56;96566.44;;;17.80;100.00
28927;BME280;16038;47.692;9.400;2023-06-19T04:15:22;96575.09;;;18.12;100.00
28927;BME280;16038;47.692;9.400;2023-06-19T04:17:47;96573.31;;;18.26;100.00
28927;BME280;16038;47.692;9.400;2023-06-19T04:20:13;96578.63;;;18.40;100.00
28927;BME280;16038;47.692;9.400;2023-06-19T04:22:40;96569.75;;;18.49;100.00
28927;BME280;16038;47.692;9.400;2023-06-19T04:25:07;96567.75;;;18.73;100.00
28927;BME280;16038;47.692;9.400;2023-06-19T04:27:33;96563.81;;;18.94;100.00
28927;BME280;16038;47.692;9.400;2023-06-19T04:29:58;96560.06;;;19.04;100.00
28927;BME280;16038;47.692;9.400;2023-06-19T04:32:24;96561.16;;;19.10;100.00
28927;BME280;16038;47.692;9.400;2023-06-19T04:34:50;96562.75;;;19.08;100.00
28927;BME280;16038;47.692;9.400;2023-06-19T04:37:16;96571.28;;;18.97;100.00
28927;BME280;16038;47.692;9.400;2023-06-19T04:39:45;96573.44;;;18.89;100.00
28927;BME280;16038;47.692;9.400;2023-06-19T04:42:10;96574.34;;;18.83;100.00
28927;BME280;16038;47.692;9.400;2023-06-19T04:44:36;96585.59;;;18.72;100.00
28927;BME280;16038;47.692;9.400;2023-06-19T04:47:01;96593.56;;;18.70;100.00
28927;BME280;16038;47.692;9.400;2023-06-19T04:49:29;96597.59;;;18.65;100.00
28927;BME280;16038;47.692;9.400;2023-06-19T04:51:56;96607.13;;;18.64;100.00
28927;BME280;16038;47.692;9.400;2023-06-19T04:54:22;96607.50;;;18.66;100.00
28927;BME280;16038;47.692;9.400;2023-06-19T04:56:48;96606.88;;;18.79;100.00
28927;BME280;16038;47.692;9.400;2023-06-19T04:59:13;96592.44;;;18.91;100.00
28927;BME280;16038;47.692;9.400;2023-06-19T05:01:43;96597.16;;;19.14;100.00
28927;BME280;16038;47.692;9.400;2023-06-19T05:04:08;96597.31;;;19.27;100.00
28927;BME280;16038;47.692;9.400;2023-06-19T05:06:36;96601.63;;;19.48;100.00
28927;BME280;16038;47.692;9.400;2023-06-19T05:09:02;96615.09;;;19.49;100.00
28927;BME280;16038;47.692;9.400;2023-06-19T05:11:27;96613.53;;;19.48;100.00
28927;BME280;16038;47.692;9.400;2023-06-19T05:13:53;96620.72;;;19.46;100.00
28927;BME280;16038;47.692;9.400;2023-06-19T05:16:18;96624.94;;;19.54;100.00
28927;BME280;16038;47.692;9.400;2023-06-19T05:18:45;96624.50;;;19.56;100.00
28927;BME280;16038;47.692;9.400;2023-06-19T05:21:11;96613.75;;;19.58;100.00
28927;BME280;16038;47.692;9.400;2023-06-19T05:23:37;96618.16;;;19.75;100.00
28927;BME280;16038;47.692;9.400;2023-06-19T05:26:03;96614.66;;;19.91;100.00
28927;BME280;16038;47.692;9.400;2023-06-19T05:28:29;96617.00;;;19.93;100.00
28927;BME280;16038;47.692;9.400;2023-06-19T05:30:54;96621.19;;;20.01;100.00
28927;BME280;16038;47.692;9.400;2023-06-19T05:33:21;96620.22;;;20.08;100.00
28927;BME280;16038;47.692;9.400;2023-06-19T05:35:49;96622.09;;;20.31;100.00
28927;BME280;16038;47.692;9.400;2023-06-19T05:38:18;96624.72;;;20.38;100.00
28927;BME280;16038;47.692;9.400;2023-06-19T05:40:43;96622.72;;;20.38;100.00
28927;BME280;16038;47.692;9.400;2023-06-19T05:43:09;96636.09;;;20.27;100.00
28927;BME280;16038;47.692;9.400;2023-06-19T05:45:34;96632.69;;;20.19;100.00
28927;BME280;16038;47.692;9.400;2023-06-19T05:48:00;96647.84;;;19.98;100.00
28927;BME280;16038;47.692;9.400;2023-06-19T05:50:25;96661.53;;;19.89;100.00
28927;BME280;16038;47.692;9.400;2023-06-19T05:52:50;96651.44;;;19.99;100.00
28927;BME280;16038;47.692;9.400;2023-06-19T05:55:16;96651.84;;;19.97;100.00
28927;BME280;16038;47.692;9.400;2023-06-19T05:57:42;96656.69;;;19.93;100.00
28927;BME280;16038;47.692;9.400;2023-06-19T06:00:08;96655.41;;;19.98;100.00
28927;BME280;16038;47.692;9.400;2023-06-19T06:02:39;96667.03;;;19.93;100.00
28927;BME280;16038;47.692;9.400;2023-06-19T06:05:05;96667.66;;;20.00;100.00
28927;BME280;16038;47.692;9.400;2023-06-19T06:07:30;96664.31;;;20.25;100.00
28927;BME280;16038;47.692;9.400;2023-06-19T06:09:56;96662.81;;;20.57;100.00
28927;BME280;16038;47.692;9.400;2023-06-19T06:12:21;96668.53;;;20.50;100.00
28927;BME280;16038;47.692;9.400;2023-06-19T06:14:46;96665.97;;;20.76;100.00
28927;BME280;16038;47.692;9.400;2023-06-19T06:17:12;96663.47;;;20.81;100.00
28927;BME280;16038;47.692;9.400;2023-06-19T06:19:37;96661.53;;;20.78;100.00
28927;BME280;16038;47.692;9.400;2023-06-19T06:22:04;96659.53;;;20.79;100.00
28927;BME280;16038;47.692;9.400;2023-06-19T06:24:29;96661.19;;;20.76;100.00
28927;BME280;16038;47.692;9.400;2023-06-19T06:26:55;96670.56;;;20.83;100.00
28927;BME280;16038;47.692;9.400;2023-06-19T06:29:20;96649.00;;;20.70;100.00
28927;BME280;16038;47.692;9.400;2023-06-19T06:31:46;96655.13;;;20.45;100.00
28927;BME280;16038;47.692;9.400;2023-06-19T06:34:12;96650.22;;;20.16;100.00
28927;BME280;16038;47.692;9.400;2023-06-19T06:36:38;96646.72;;;19.56;100.00
28927;BME280;16038;47.692;9.400;2023-06-19T06:39:04;96647.56;;;19.53;100.00
28927;BME280;16038;47.692;9.400;2023-06-19T06:41:31;96644.59;;;19.43;100.00
28927;BME280;16038;47.692;9.400;2023-06-19T06:43:56;96641.66;;;19.51;100.00
28927;BME280;16038;47.692;9.400;2023-06-19T06:46:22;96637.03;;;19.44;100.00
28927;BME280;16038;47.692;9.400;2023-06-19T06:48:48;96632.56;;;19.06;100.00
28927;BME280;16038;47.692;9.400;2023-06-19T06:51:14;96628.91;;;19.13;100.00
28927;BME280;16038;47.692;9.400;2023-06-19T06:53:39;96633.47;;;19.43;100.00
28927;BME280;16038;47.692;9.400;2023-06-19T06:56:05;96626.56;;;19.32;100.00
28927;BME280;16038;47.692;9.400;2023-06-19T06:58:30;96611.25;;;19.03;100.00
28927;BME280;16038;47.692;9.400;2023-06-19T07:00:56;96624.91;;;19.14;100.00
28927;BME280;16038;47.692;9.400;2023-06-19T07:03:21;96622.09;;;19.38;100.00
28927;BME280;16038;47.692;9.400;2023-06-19T07:05:50;96617.38;;;19.55;100.00
28927;BME280;16038;47.692;9.400;2023-06-19T07:08:15;96615.97;;;20.03;100.00
28927;BME280;16038;47.692;9.400;2023-06-19T07:10:41;96609.94;;;20.24;100.00
28927;BME280;16038;47.692;9.400;2023-06-19T07:13:06;96600.03;;;20.40;100.00
28927;BME280;16038;47.692;9.400;2023-06-19T07:15:31;96603.59;;;20.57;100.00
28927;BME280;16038;47.692;9.400;2023-06-19T07:17:57;96600.56;;;20.84;100.00
28927;BME280;16038;47.692;9.400;2023-06-19T07:20:22;96605.59;;;20.89;100.00
28927;BME280;16038;47.692;9.400;2023-06-19T07:22:50;96598.78;;;20.90;100.00
28927;BME280;16038;47.692;9.400;2023-06-19T07:25:16;96604.41;;;21.19;100.00
28927;BME280;16038;47.692;9.400;2023-06-19T07:27:42;96601.84;;;20.96;100.00
28927;BME280;16038;47.692;9.400;2023-06-19T07:30:08;96602.78;;;21.06;100.00
28927;BME280;16038;47.692;9.400;2023-06-19T07:32:34;96598.03;;;21.19;100.00
28927;BME280;16038;47.692;9.400;2023-06-19T07:34:59;96587.94;;;21.54;99.75
28927;BME280;16038;47.692;9.400;2023-06-19T07:37:24;96595.09;;;21.68;96.43
28927;BME280;16038;47.692;9.400;2023-06-19T07:39:51;96592.56;;;22.00;96.45
28927;BME280;16038;47.692;9.400;2023-06-19T07:42:19;96592.34;;;22.20;97.55
28927;BME280;16038;47.692;9.400;2023-06-19T07:44:45;96585.66;;;22.43;94.48
28927;BME280;16038;47.692;9.400;2023-06-19T07:47:11;96587.50;;;22.71;92.24
28927;BME280;16038;47.692;9.400;2023-06-19T07:49:37;96588.78;;;22.45;96.17
28927;BME280;16038;47.692;9.400;2023-06-19T07:52:03;96595.16;;;22.32;96.25
28927;BME280;16038;47.692;9.400;2023-06-19T07:54:29;96597.97;;;22.80;93.65
28927;BME280;16038;47.692;9.400;2023-06-19T07:56:54;96590.38;;;22.81;91.36
28927;BME280;16038;47.692;9.400;2023-06-19T07:59:20;96598.91;;;22.99;91.75
28927;BME280;16038;47.692;9.400;2023-06-19T08:01:45;96593.34;;;23.34;89.69
28927;BME280;16038;47.692;9.400;2023-06-19T08:04:11;96592.63;;;23.65;88.03
28927;BME280;16038;47.692;9.400;2023-06-19T08:06:36;96598.53;;;23.89;86.27
28927;BME280;16038;47.692;9.400;2023-06-19T08:09:02;96595.34;;;24.09;85.78
28927;BME280;16038;47.692;9.400;2023-06-19T08:11:28;96593.28;;;24.32;83.18
28927;BME280;16038;47.692;9.400;2023-06-19T08:13:53;96596.44;;;24.52;81.38
28927;BME280;16038;47.692;9.400;2023-06-19T08:16:18;96582.38;;;24.74;80.68
28927;BME280;16038;47.692;9.400;2023-06-19T08:18:44;96577.41;;;24.69;75.80
28927;BME280;16038;47.692;9.400;2023-06-19T08:21:10;96581.69;;;24.52;76.37
28927;BME280;16038;47.692;9.400;2023-06-19T08:23:36;96577.56;;;25.03;74.88
28927;BME280;16038;47.692;9.400;2023-06-19T08:26:03;96569.63;;;25.47;71.57
28927;BME280;16038;47.692;9.400;2023-06-19T08:28:28;96573.09;;;26.03;67.55
28927;BME280;16038;47.692;9.400;2023-06-19T08:30:54;96574.41;;;26.26;63.08
28927;BME280;16038;47.692;9.400;2023-06-19T08:33:19;96569.94;;;25.49;62.85
28927;BME280;16038;47.692;9.400;2023-06-19T08:35:45;96568.19;;;25.70;63.96
28927;BME280;16038;47.692;9.400;2023-06-19T08:38:11;96566.53;;;26.40;62.42
28927;BME280;16038;47.692;9.400;2023-06-19T08:40:37;96569.75;;;26.81;59.85
28927;BME280;16038;47.692;9.400;2023-06-19T08:43:02;96572.41;;;27.23;57.25
28927;BME280;16038;47.692;9.400;2023-06-19T08:45:28;96568.25;;;26.13;59.87
28927;BME280;16038;47.692;9.400;2023-06-19T08:48:01;96586.28;;;27.66;56.80
28927;BME280;16038;47.692;9.400;2023-06-19T08:50:32;96578.63;;;28.82;53.38
28927;BME280;16038;47.692;9.400;2023-06-19T08:52:57;96576.34;;;29.74;50.84
28927;BME280;16038;47.692;9.400;2023-06-19T08:55:24;96574.38;;;29.54;49.43
28927;BME280;16038;47.692;9.400;2023-06-19T08:57:50;96575.97;;;28.93;51.34
28927;BME280;16038;47.692;9.400;2023-06-19T09:00:28;96573.78;;;29.03;49.89
28927;BME280;16038;47.692;9.400;2023-06-19T09:03:00;96578.59;;;29.64;49.15
28927;BME280;16038;47.692;9.400;2023-06-19T09:05:26;96570.25;;;29.29;49.26
28927;BME280;16038;47.692;9.400;2023-06-19T09:07:57;96572.03;;;29.26;49.66
28927;BME280;16038;47.692;9.400;2023-06-19T09:10:23;96572.84;;;29.79;47.91
28927;BME280;16038;47.692;9.400;2023-06-19T09:13:16;96571.09;;;29.61;48.70
28927;BME280;16038;47.692;9.400;2023-06-19T09:15:41;96564.19;;;29.88;48.12
28927;BME280;16038;47.692;9.400;2023-06-19T09:18:08;96573.03;;;30.34;45.84
28927;BME280;16038;47.692;9.400;2023-06-19T09:20:37;96566.75;;;30.56;45.90
28927;BME280;16038;47.692;9.400;2023-06-19T09:23:04;96562.69;;;30.62;45.13
28927;BME280;16038;47.692;9.400;2023-06-19T09:25:30;96565.56;;;30.74;44.42
28927;BME280;16038;47.692;9.400;2023-06-19T09:27:55;96570.84;;;30.49;43.55
28927;BME280;16038;47.692;9.400;2023-06-19T09:30:21;96569.78;;;30.46;43.44
28927;BME280;16038;47.692;9.400;2023-06-19T09:32:47;96564.63;;;30.07;43.87
28927;BME280;16038;47.692;9.400;2023-06-19T09:35:13;96554.56;;;30.01;45.33
28927;BME280;16038;47.692;9.400;2023-06-19T09:37:39;96566.13;;;30.03;42.75
28927;BME280;16038;47.692;9.400;2023-06-19T09:40:06;96556.19;;;30.13;44.41
28927;BME280;16038;47.692;9.400;2023-06-19T09:42:38;96551.47;;;29.99;43.36
28927;BME280;16038;47.692;9.400;2023-06-19T09:45:04;96555.56;;;29.71;43.97
28927;BME280;16038;47.692;9.400;2023-06-19T09:47:33;96541.66;;;29.94;45.10
28927;BME280;16038;47.692;9.400;2023-06-19T09:50:01;96550.94;;;29.01;46.41
28927;BME280;16038;47.692;9.400;2023-06-19T09:52:26;96558.25;;;29.13;44.95
28927;BME280;16038;47.692;9.400;2023-06-19T09:54:54;96557.03;;;29.14;44.68
28927;BME280;16038;47.692;9.400;2023-06-19T09:57:20;96556.69;;;28.00;48.08
28927;BME280;16038;47.692;9.400;2023-06-19T09:59:52;96552.00;;;26.99;51.66
28927;BME280;16038;47.692;9.400;2023-06-19T10:02:19;96547.53;;;26.68;52.45
28927;BME280;16038;47.692;9.400;2023-06-19T10:04:50;96548.81;;;26.67;53.33
28927;BME280;16038;47.692;9.400;2023-06-19T10:07:20;96550.28;;;27.70;52.57
28927;BME280;16038;47.692;9.400;2023-06-19T10:10:02;96550.88;;;28.95;49.08
28927;BME280;16038;47.692;9.400;2023-06-19T10:12:47;96547.06;;;29.66;45.32
28927;BME280;16038;47.692;9.400;2023-06-19T10:15:29;96550.91;;;30.32;43.43
28927;BME280;16038;47.692;9.400;2023-06-19T10:18:02;96550.78;;;30.09;43.53
28927;BME280;16038;47.692;9.400;2023-06-19T10:23:17;96551.38;;;30.25;42.57
28927;BME280;16038;47.692;9.400;2023-06-19T10:25:47;96547.78;;;29.92;42.69
28927;BME280;16038;47.692;9.400;2023-06-19T10:28:28;96538.69;;;28.84;45.42
28927;BME280;16038;47.692;9.400;2023-06-19T10:33:24;96542.00;;;28.82;45.41
28927;BME280;16038;47.692;9.400;2023-06-19T10:35:50;96532.34;;;28.68;46.18
28927;BME280;16038;47.692;9.400;2023-06-19T10:38:16;96528.53;;;27.85;48.12
28927;BME280;16038;47.692;9.400;2023-06-19T10:40:42;96526.00;;;29.14;45.84
28927;BME280;16038;47.692;9.400;2023-06-19T10:43:09;96514.63;;;29.09;45.63
28927;BME280;16038;47.692;9.400;2023-06-19T10:45:34;96509.56;;;29.13;45.40
28927;BME280;16038;47.692;9.400;2023-06-19T10:48:02;96513.03;;;29.02;46.22
28927;BME280;16038;47.692;9.400;2023-06-19T10:50:28;96503.63;;;28.85;47.61
28927;BME280;16038;47.692;9.400;2023-06-19T10:52:54;96502.53;;;30.13;44.53
28927;BME280;16038;47.692;9.400;2023-06-19T10:55:20;96507.66;;;31.01;42.22
28927;BME280;16038;47.692;9.400;2023-06-19T10:57:47;96496.63;;;31.25;41.61
28927;BME280;16038;47.692;9.400;2023-06-19T11:00:27;96501.34;;;31.51;40.97
28927;BME280;16038;47.692;9.400;2023-06-19T11:02:53;96509.06;;;31.85;39.92
28927;BME280;16038;47.692;9.400;2023-06-19T11:05:23;96505.47;;;32.29;39.85
28927;BME280;16038;47.692;9.400;2023-06-19T11:07:55;96489.94;;;32.53;38.50
28927;BME280;16038;47.692;9.400;2023-06-19T11:10:24;96496.69;;;31.42;40.12
28927;BME280;16038;47.692;9.400;2023-06-19T11:12:59;96493.91;;;32.05;37.84
28927;BME280;16038;47.692;9.400;2023-06-19T11:15:43;96486.94;;;32.11;36.82
28927;BME280;16038;47.692;9.400;2023-06-19T11:18:09;96476.56;;;31.23;37.34
28927;BME280;16038;47.692;9.400;2023-06-19T11:21:03;96481.41;;;30.95;37.02
28927;BME280;16038;47.692;9.400;2023-06-19T11:23:30;96482.91;;;30.90;37.81
28927;BME280;16038;47.692;9.400;2023-06-19T11:26:05;96485.31;;;31.25;37.46
28927;BME280;16038;47.692;9.400;2023-06-19T11:28:31;96485.28;;;30.97;36.35
28927;BME280;16038;47.692;9.400;2023-06-19T11:31:02;96479.00;;;30.82;37.46
28927;BME280;16038;47.692;9.400;2023-06-19T11:33:28;96479.97;;;30.62;37.07
28927;BME280;16038;47.692;9.400;2023-06-19T11:35:55;96476.31;;;31.16;36.59
28927;BME280;16038;47.692;9.400;2023-06-19T11:38:25;96479.09;;;30.99;37.60
28927;BME280;16038;47.692;9.400;2023-06-19T11:40:52;96480.50;;;31.49;35.28
28927;BME280;16038;47.692;9.400;2023-06-19T11:43:28;96478.66;;;31.40;34.79
28927;BME280;16038;47.692;9.400;2023-06-19T11:46:00;96471.97;;;31.43;35.03
28927;BME280;16038;47.692;9.400;2023-06-19T11:48:27;96471.75;;;31.58;34.67
28927;BME280;16038;47.692;9.400;2023-06-19T11:50:53;96463.50;;;31.60;34.55
28927;BME280;16038;47.692;9.400;2023-06-19T11:53:20;96469.97;;;31.72;34.30
28927;BME280;16038;47.692;9.400;2023-06-19T11:55:46;96465.78;;;31.22;34.02
28927;BME280;16038;47.692;9.400;2023-06-19T11:58:11;96460.06;;;30.94;34.66
28927;BME280;16038;47.692;9.400;2023-06-19T12:00:37;96468.06;;;31.12;35.60
28927;BME280;16038;47.692;9.400;2023-06-19T12:03:04;96463.94;;;31.08;35.97
28927;BME280;16038;47.692;9.400;2023-06-19T12:05:29;96460.97;;;30.74;35.94
28927;BME280;16038;47.692;9.400;2023-06-19T12:07:55;96462.38;;;30.95;35.53
28927;BME280;16038;47.692;9.400;2023-06-19T12:10:21;96455.88;;;30.78;35.20
28927;BME280;16038;47.692;9.400;2023-06-19T12:12:46;96448.22;;;30.95;36.44
28927;BME280;16038;47.692;9.400;2023-06-19T12:15:12;96448.16;;;30.78;36.84
28927;BME280;16038;47.692;9.400;2023-06-19T12:17:37;96445.03;;;30.65;37.22
28927;BME280;16038;47.692;9.400;2023-06-19T12:20:03;96447.25;;;30.44;37.43
28927;BME280;16038;47.692;9.400;2023-06-19T12:22:32;96440.06;;;30.48;37.89
28927;BME280;16038;47.692;9.400;2023-06-19T12:24:58;96437.84;;;30.64;37.75
28927;BME280;16038;47.692;9.400;2023-06-19T12:27:23;96432.31;;;30.98;37.38
28927;BME280;16038;47.692;9.400;2023-06-19T12:29:49;96433.06;;;30.98;37.87
28927;BME280;16038;47.692;9.400;2023-06-19T12:32:14;96429.69;;;30.83;38.29
28927;BME280;16038;47.692;9.400;2023-06-19T12:34:39;96430.00;;;31.08;38.43
28927;BME280;16038;47.692;9.400;2023-06-19T12:37:05;96421.31;;;31.34;37.61
28927;BME280;16038;47.692;9.400;2023-06-19T12:39:31;96427.47;;;31.38;37.97
28927;BME280;16038;47.692;9.400;2023-06-19T12:41:58;96421.25;;;31.05;36.06
28927;BME280;16038;47.692;9.400;2023-06-19T12:44:23;96418.78;;;30.47;37.25
28927;BME280;16038;47.692;9.400;2023-06-19T12:46:50;96409.63;;;30.21;38.29
28927;BME280;16038;47.692;9.400;2023-06-19T12:49:15;96412.47;;;30.86;37.41
28927;BME280;16038;47.692;9.400;2023-06-19T12:51:40;96411.75;;;31.14;35.97
28927;BME280;16038;47.692;9.400;2023-06-19T12:54:06;96412.53;;;31.15;36.58
28927;BME280;16038;47.692;9.400;2023-06-19T12:56:31;96408.47;;;31.50;35.72
28927;BME280;16038;47.692;9.400;2023-06-19T12:58:56;96401.50;;;31.56;35.11
28927;BME280;16038;47.692;9.400;2023-06-19T13:01:22;96397.13;;;31.10;36.05
28927;BME280;16038;47.692;9.400;2023-06-19T13:03:47;96388.03;;;30.78;37.58